Time;durP1;ratioP1;P1;durP2;ratioP2;P2;SDS_P1;SDS_P2;PMS_P1;PMS_P2;Temp;Humidity;BMP_temperature;BMP_pressure;BME280_temperature;BME280_humidity;BME280_pressure;Samples;Min_cycle;Max_cycle;Signal;HPM_P1;HPM_P2
2023/02/03 00:02:03;;;;;;;10.80;6.67;;;5.60;75.00;;;;;;5039637;28;20205;-66
2023/02/03 00:04:30;;;;;;;8.70;5.97;;;5.50;75.10;;;;;;5038494;28;20244;-66
2023/02/03 00:06:57;;;;;;;11.03;7.13;;;5.50;75.30;;;;;;5033947;28;20211;-66
2023/02/03 00:09:24;;;;;;;10.47;6.83;;;5.50;75.50;;;;;;5037999;28;20565;-66
2023/02/03 00:11:52;;;;;;;12.43;6.90;;;5.40;75.60;;;;;;5031783;28;20195;-66
2023/02/03 00:14:19;;;;;;;10.77;6.47;;;5.40;75.70;;;;;;5036181;28;20203;-66
2023/02/03 00:16:46;;;;;;;10.80;7.20;;;5.40;75.70;;;;;;5040846;28;20256;-66
2023/02/03 00:19:13;;;;;;;9.67;7.23;;;5.30;75.90;;;;;;5028825;28;20206;-68
2023/02/03 00:21:43;;;;;;;10.17;6.50;;;5.30;76.10;;;;;;5035167;28;20196;-66
2023/02/03 00:24:11;;;;;;;10.30;6.93;;;5.30;76.10;;;;;;5040018;28;20199;-66
2023/02/03 00:26:42;;;;;;;10.30;7.30;;;5.20;75.60;;;;;;5036943;28;20214;-66
2023/02/03 00:29:09;;;;;;;9.60;7.00;;;5.20;75.70;;;;;;5039239;28;20607;-66
2023/02/03 00:31:36;;;;;;;14.70;7.03;;;5.10;76.00;;;;;;5034212;28;20202;-66
2023/02/03 00:34:04;;;;;;;12.27;6.97;;;5.10;76.20;;;;;;5037806;28;20214;-69
2023/02/03 00:36:32;;;;;;;9.03;6.77;;;5.10;76.30;;;;;;5034278;28;20678;-66
2023/02/03 00:39:00;;;;;;;12.80;7.33;;;5.10;76.30;;;;;;5043291;28;20681;-66
2023/02/03 00:41:29;;;;;;;14.20;7.40;;;5.00;75.90;;;;;;5028320;28;20203;-66
2023/02/03 00:43:56;;;;;;;11.87;7.57;;;5.10;76.20;;;;;;5030583;28;20210;-66
2023/02/03 00:46:23;;;;;;;10.53;7.10;;;5.10;76.40;;;;;;5041226;28;20229;-66
2023/02/03 00:48:50;;;;;;;12.80;8.07;;;5.10;76.50;;;;;;5028222;28;20213;-66
2023/02/03 00:51:17;;;;;;;12.63;7.80;;;5.10;76.50;;;;;;5031918;28;20198;-67
2023/02/03 00:53:44;;;;;;;13.17;7.57;;;5.10;76.30;;;;;;5038037;28;20195;-66
2023/02/03 00:56:11;;;;;;;11.53;7.30;;;5.10;76.00;;;;;;5042721;28;20248;-65
2023/02/03 00:58:39;;;;;;;9.67;7.37;;;5.10;76.30;;;;;;5041136;28;20206;-66
2023/02/03 01:01:06;;;;;;;13.67;7.37;;;5.10;76.30;;;;;;5034659;28;20241;-66
2023/02/03 01:03:34;;;;;;;10.27;7.27;;;5.00;76.50;;;;;;5022126;28;20211;-66
2023/02/03 01:06:27;;;;;;;15.63;7.93;;;5.00;76.50;;;;;;5033505;28;20215;-66
2023/02/03 01:08:54;;;;;;;12.50;7.90;;;5.00;76.70;;;;;;5040778;28;20276;-66
2023/02/03 01:11:26;;;;;;;9.60;7.00;;;5.00;76.70;;;;;;5031639;28;20272;-66
2023/02/03 01:13:55;;;;;;;11.43;7.50;;;5.00;76.80;;;;;;5035854;28;20625;-68
2023/02/03 01:16:24;;;;;;;12.30;7.80;;;5.00;76.70;;;;;;5038822;28;20309;-66
2023/02/03 01:18:54;;;;;;;14.63;6.83;;;4.90;76.50;;;;;;5028523;28;20219;-67
2023/02/03 01:21:23;;;;;;;11.80;8.30;;;4.90;76.70;;;;;;5038622;28;20289;-66
2023/02/03 01:23:51;;;;;;;9.40;6.77;;;4.90;76.80;;;;;;5039613;28;20292;-65
2023/02/03 01:26:20;;;;;;;10.17;6.73;;;4.90;76.70;;;;;;5037354;28;20320;-66
2023/02/03 01:28:55;;;;;;;11.80;8.03;;;5.00;76.80;;;;;;5036799;28;20201;-66
2023/02/03 01:31:29;;;;;;;8.90;7.07;;;5.00;76.80;;;;;;5037480;28;20548;-65
2023/02/03 01:33:56;;;;;;;11.80;6.43;;;5.00;76.70;;;;;;5036480;28;20553;-66
2023/02/03 01:36:25;;;;;;;16.37;7.53;;;4.90;76.00;;;;;;5035614;28;20207;-66
2023/02/03 01:38:53;;;;;;;11.37;7.40;;;4.80;75.30;;;;;;5036078;28;20207;-66
2023/02/03 01:41:29;;;;;;;15.80;7.70;;;4.60;75.60;;;;;;5033051;28;20699;-66
2023/02/03 01:43:59;;;;;;;10.07;7.43;;;4.50;76.10;;;;;;5031046;28;20222;-66
2023/02/03 01:46:37;;;;;;;11.80;7.53;;;4.30;77.00;;;;;;5033934;28;20615;-65
2023/02/03 01:49:17;;;;;;;12.37;7.33;;;4.30;77.60;;;;;;5032967;28;20214;-67
2023/02/03 01:51:45;;;;;;;13.33;7.40;;;4.30;78.40;;;;;;5035010;28;20650;-67
2023/02/03 01:54:26;;;;;;;14.10;7.10;;;4.40;78.20;;;;;;5034383;28;20213;-67
2023/02/03 01:56:59;;;;;;;14.80;8.47;;;4.40;78.20;;;;;;5042658;28;20242;-65
2023/02/03 01:59:28;;;;;;;11.70;7.87;;;4.40;78.20;;;;;;5038760;28;20240;-66
2023/02/03 02:01:56;;;;;;;16.77;9.80;;;4.40;78.40;;;;;;5039467;28;20306;-66
2023/02/03 02:04:33;;;;;;;16.93;9.53;;;4.40;79.00;;;;;;5039275;28;20324;-65
2023/02/03 02:07:01;;;;;;;13.93;8.80;;;4.40;79.10;;;;;;5033192;28;20281;-66
2023/02/03 02:09:28;;;;;;;11.40;7.50;;;4.50;79.10;;;;;;5032790;28;20200;-66
2023/02/03 02:11:55;;;;;;;11.23;7.53;;;4.50;78.90;;;;;;5035008;28;20215;-66
2023/02/03 02:14:22;;;;;;;14.10;7.70;;;4.50;78.70;;;;;;5040166;28;20475;-66
2023/02/03 02:17:03;;;;;;;10.40;7.33;;;4.40;78.30;;;;;;5040972;28;20198;-65
2023/02/03 02:20:01;;;;;;;9.43;7.10;;;4.30;78.20;;;;;;5032900;28;20229;-66
2023/02/03 02:22:59;;;;;;;7.90;6.57;;;4.30;78.30;;;;;;5036612;28;20206;-66
2023/02/03 02:25:36;;;;;;;10.67;6.87;;;4.20;78.30;;;;;;5035271;28;20202;-67
2023/02/03 02:28:35;;;;;;;12.43;7.37;;;4.10;78.60;;;;;;5039027;28;20285;-66
2023/02/03 02:31:15;;;;;;;10.80;7.50;;;4.10;78.90;;;;;;5013240;28;20300;-67
2023/02/03 02:34:05;;;;;;;12.57;8.20;;;4.00;79.20;;;;;;5040652;28;20215;-65
2023/02/03 02:36:51;;;;;;;13.80;7.33;;;4.00;79.40;;;;;;5035437;28;20211;-66
2023/02/03 02:39:39;;;;;;;12.23;7.93;;;4.00;79.20;;;;;;5028424;28;20550;-65
2023/02/03 02:42:15;;;;;;;15.80;8.70;;;3.90;78.80;;;;;;5031632;28;20249;-66
2023/02/03 02:44:57;;;;;;;14.90;8.13;;;3.90;79.20;;;;;;5045314;28;20236;-66
2023/02/03 02:47:24;;;;;;;15.53;8.67;;;3.90;79.60;;;;;;5045058;28;20261;-66
2023/02/03 02:50:20;;;;;;;11.23;7.13;;;3.90;79.60;;;;;;5037567;28;20286;-65
2023/02/03 02:52:49;;;;;;;11.23;7.50;;;3.80;79.80;;;;;;5031332;28;20213;-65
2023/02/03 02:55:26;;;;;;;14.17;8.00;;;3.80;79.60;;;;;;5039232;28;20590;-66
2023/02/03 02:58:02;;;;;;;14.27;8.30;;;3.80;79.60;;;;;;5051671;28;20712;-65
2023/02/03 03:00:31;;;;;;;15.47;8.63;;;3.70;79.60;;;;;;5032822;28;20654;-65
2023/02/03 03:03:12;;;;;;;14.97;7.60;;;3.60;79.40;;;;;;5039323;28;20193;-66
2023/02/03 03:05:45;;;;;;;14.93;8.03;;;3.60;79.80;;;;;;5043461;28;20220;-65
2023/02/03 03:08:18;;;;;;;7.90;6.30;;;3.60;80.10;;;;;;5041854;28;20240;-65
2023/02/03 03:10:46;;;;;;;13.90;8.27;;;3.60;80.10;;;;;;5043509;28;20533;-65
2023/02/03 03:13:26;;;;;;;12.53;8.17;;;3.50;79.90;;;;;;5036529;28;20553;-65
2023/02/03 03:15:56;;;;;;;13.10;7.27;;;3.50;80.30;;;;;;5036262;28;20206;-65
2023/02/03 03:18:35;;;;;;;10.03;6.97;;;3.40;80.60;;;;;;5038627;28;20206;-66
2023/02/03 03:21:05;;;;;;;12.80;8.07;;;3.40;80.30;;;;;;5039659;28;20522;-65
2023/02/03 03:23:38;;;;;;;12.77;7.80;;;3.30;79.80;;;;;;5032662;28;20218;-65
2023/02/03 03:26:14;;;;;;;15.80;9.33;;;3.30;80.30;;;;;;5036186;28;20230;-66
2023/02/03 03:28:51;;;;;;;17.40;9.03;;;3.20;80.70;;;;;;5041363;28;20209;-65
2023/02/03 03:31:19;;;;;;;12.67;8.27;;;3.30;81.20;;;;;;5032424;28;20193;-66
2023/02/03 03:33:47;;;;;;;10.60;6.93;;;3.20;81.20;;;;;;5036278;28;20972;-65
2023/02/03 03:36:37;;;;;;;13.60;8.77;;;3.20;81.20;;;;;;5040837;28;20205;-65
2023/02/03 03:39:15;;;;;;;15.70;8.60;;;3.20;81.10;;;;;;5036795;28;20202;-67
2023/02/03 03:41:58;;;;;;;11.87;8.23;;;3.20;81.10;;;;;;5035893;28;20650;-65
2023/02/03 03:44:29;;;;;;;12.73;8.30;;;3.10;81.10;;;;;;5037321;28;20575;-65
2023/02/03 03:47:16;;;;;;;10.33;7.90;;;3.10;81.40;;;;;;5034499;28;20214;-65
2023/02/03 03:49:46;;;;;;;12.47;7.60;;;3.10;81.60;;;;;;5037198;28;20598;-65
2023/02/03 03:52:19;;;;;;;13.00;7.13;;;3.00;81.60;;;;;;5038885;28;20211;-65
2023/02/03 03:54:48;;;;;;;11.77;7.10;;;3.00;81.60;;;;;;5030315;28;20229;-65
2023/02/03 03:57:22;;;;;;;10.13;7.37;;;3.00;81.60;;;;;;5033054;28;20241;-65
2023/02/03 03:59:50;;;;;;;14.03;8.23;;;3.00;81.70;;;;;;5035131;28;20265;-66
2023/02/03 04:02:19;;;;;;;13.27;8.63;;;2.90;81.50;;;;;;5038186;28;20740;-65
2023/02/03 04:04:48;;;;;;;15.10;8.17;;;2.90;81.40;;;;;;5039436;28;20241;-65
2023/02/03 04:07:15;;;;;;;14.30;8.33;;;2.80;81.40;;;;;;5038263;28;20209;-65
2023/02/03 04:09:42;;;;;;;16.60;9.80;;;2.70;81.50;;;;;;5039285;28;20598;-66
2023/02/03 04:12:22;;;;;;;36.20;24.03;;;2.70;81.90;;;;;;5033551;28;20635;-65
2023/02/03 04:14:50;;;;;;;44.27;26.80;;;2.60;82.80;;;;;;5037514;28;20207;-65
2023/02/03 04:17:18;;;;;;;40.07;27.03;;;2.50;83.20;;;;;;5036535;28;20284;-66
2023/02/03 04:19:47;;;;;;;49.23;34.33;;;2.40;83.40;;;;;;5037261;28;20280;-66
2023/02/03 04:22:14;;;;;;;64.37;37.90;;;2.20;83.60;;;;;;5041522;28;20213;-65
2023/02/03 04:24:41;;;;;;;58.97;38.70;;;2.00;83.80;;;;;;5027443;28;20249;-65
2023/02/03 04:27:08;;;;;;;78.57;40.83;;;1.90;84.20;;;;;;5035798;28;20595;-66
2023/02/03 04:29:35;;;;;;;67.43;40.60;;;1.80;84.60;;;;;;5042170;28;20201;-65
2023/02/03 04:32:02;;;;;;;73.97;40.77;;;1.70;84.80;;;;;;5035494;28;20284;-66
2023/02/03 04:34:29;;;;;;;67.47;40.03;;;1.60;85.30;;;;;;5037217;28;20209;-66
2023/02/03 04:36:56;;;;;;;70.33;43.03;;;1.60;86.30;;;;;;5035011;28;20206;-65
2023/02/03 04:39:23;;;;;;;74.23;43.60;;;1.50;85.70;;;;;;5037166;28;20291;-66
2023/02/03 04:41:50;;;;;;;66.53;43.47;;;1.50;86.20;;;;;;5035980;28;20206;-65
2023/02/03 04:44:17;;;;;;;69.83;44.17;;;1.40;86.30;;;;;;5034879;28;20201;-66
2023/02/03 04:46:44;;;;;;;62.67;42.93;;;1.40;86.80;;;;;;5036622;28;20230;-66
2023/02/03 04:49:11;;;;;;;69.17;43.47;;;1.40;87.30;;;;;;5035219;28;20214;-65
2023/02/03 04:51:38;;;;;;;80.33;44.40;;;1.50;87.60;;;;;;5037105;28;20195;-65
2023/02/03 04:54:05;;;;;;;74.63;40.17;;;1.40;87.50;;;;;;5037514;28;20272;-66
2023/02/03 04:56:32;;;;;;;72.60;43.53;;;1.50;87.60;;;;;;5037739;28;20234;-65
2023/02/03 04:58:59;;;;;;;107.20;43.63;;;1.40;87.30;;;;;;5037813;28;20607;-65
2023/02/03 05:01:26;;;;;;;66.10;43.63;;;1.40;87.50;;;;;;5035667;28;20687;-66
2023/02/03 05:03:53;;;;;;;83.37;44.90;;;1.40;87.80;;;;;;5034149;28;20685;-65
2023/02/03 05:06:25;;;;;;;68.80;42.10;;;1.40;88.20;;;;;;5035615;28;20727;-66
2023/02/03 05:08:52;;;;;;;71.20;44.53;;;1.40;88.20;;;;;;5039411;28;20206;-65
2023/02/03 05:11:20;;;;;;;88.57;45.27;;;1.40;88.10;;;;;;5030663;28;20633;-66
2023/02/03 05:13:47;;;;;;;83.90;44.53;;;1.40;88.40;;;;;;5029050;28;20192;-65
2023/02/03 05:16:14;;;;;;;104.67;46.43;;;1.40;88.70;;;;;;5034126;28;20638;-65
2023/02/03 05:18:41;;;;;;;74.77;46.03;;;1.40;88.90;;;;;;5031567;28;20295;-65
2023/02/03 05:21:08;;;;;;;73.03;47.67;;;1.50;89.20;;;;;;5034891;28;20202;-65
2023/02/03 05:23:35;;;;;;;69.47;44.10;;;1.50;89.60;;;;;;5040702;28;20208;-67
2023/02/03 05:26:03;;;;;;;80.67;48.93;;;1.60;90.00;;;;;;5036642;28;20265;-66
2023/02/03 05:28:30;;;;;;;102.03;46.13;;;1.70;90.10;;;;;;5043213;28;20261;-65
2023/02/03 05:30:58;;;;;;;187.27;52.53;;;1.70;90.00;;;;;;5041411;28;20283;-65
2023/02/03 05:33:25;;;;;;;137.03;49.70;;;1.70;90.00;;;;;;5026898;28;20514;-66
2023/02/03 05:35:52;;;;;;;189.50;51.23;;;1.70;90.10;;;;;;5032204;28;20217;-66
2023/02/03 05:38:19;;;;;;;300.17;54.27;;;1.70;90.30;;;;;;5040178;28;20197;-65
2023/02/03 05:43:33;;;;;;;296.67;55.40;;;1.70;90.70;;;;;;5035680;28;20277;-65
2023/02/03 05:46:02;;;;;;;229.77;59.10;;;1.80;90.90;;;;;;5040435;28;20206;-65
2023/02/03 05:48:29;;;;;;;262.67;57.27;;;1.80;91.20;;;;;;5028483;28;20226;-65
2023/02/03 05:50:56;;;;;;;277.47;56.60;;;1.80;91.50;;;;;;5041414;28;20214;-66
2023/02/03 05:53:25;;;;;;;266.40;55.20;;;1.90;91.70;;;;;;5043105;28;20228;-66
2023/02/03 05:55:52;;;;;;;540.23;64.47;;;1.90;91.90;;;;;;5037768;28;20266;-67
2023/02/03 05:58:19;;;;;;;326.87;57.43;;;2.00;92.20;;;;;;5041930;28;20205;-65
2023/02/03 06:00:46;;;;;;;236.13;59.57;;;2.00;92.30;;;;;;5041274;28;20206;-69
2023/02/03 06:03:13;;;;;;;423.33;59.87;;;2.10;92.50;;;;;;5038042;28;20625;-66
2023/02/03 06:05:40;;;;;;;791.07;73.87;;;2.10;92.70;;;;;;5038315;28;20247;-66
2023/02/03 06:08:07;;;;;;;338.23;60.50;;;2.20;92.80;;;;;;5034848;28;20593;-66
2023/02/03 06:10:35;;;;;;;357.10;61.07;;;2.30;92.80;;;;;;5042816;28;20213;-66
2023/02/03 06:13:10;;;;;;;411.93;63.00;;;2.20;93.00;;;;;;5031797;28;20641;-67
2023/02/03 06:15:37;;;;;;;425.53;67.30;;;2.30;93.20;;;;;;5041439;28;20208;-67
2023/02/03 06:18:04;;;;;;;281.63;60.00;;;2.30;93.40;;;;;;5038363;28;20255;-66
2023/02/03 06:20:31;;;;;;;302.47;60.03;;;2.40;93.60;;;;;;5040573;28;20259;-67
2023/02/03 06:22:59;;;;;;;316.23;65.33;;;2.50;93.80;;;;;;5031430;28;20214;-66
2023/02/03 06:25:26;;;;;;;306.67;64.20;;;2.50;94.00;;;;;;5041120;28;20259;-65
2023/02/03 06:27:53;;;;;;;308.33;59.93;;;2.60;94.10;;;;;;5036105;28;20255;-66
2023/02/03 06:30:22;;;;;;;232.60;59.40;;;2.70;94.20;;;;;;5021288;28;20207;-65
2023/02/03 06:32:49;;;;;;;158.57;57.60;;;2.70;94.30;;;;;;5042200;28;20688;-66
2023/02/03 06:35:17;;;;;;;215.07;59.63;;;2.80;94.40;;;;;;5034193;28;20201;-68
2023/02/03 06:37:44;;;;;;;412.10;65.43;;;2.80;94.40;;;;;;5033594;28;20220;-66
2023/02/03 06:40:12;;;;;;;274.90;59.90;;;2.90;94.50;;;;;;5033191;28;20240;-66
2023/02/03 06:42:39;;;;;;;215.43;57.63;;;2.90;94.50;;;;;;5033138;28;20202;-66
2023/02/03 06:45:07;;;;;;;433.60;67.73;;;2.90;94.60;;;;;;5040642;28;20232;-66
2023/02/03 06:47:34;;;;;;;410.77;63.47;;;3.00;94.60;;;;;;5039984;28;20223;-67
2023/02/03 06:50:01;;;;;;;231.47;55.87;;;3.00;94.60;;;;;;5036633;28;20214;-66
2023/02/03 06:52:28;;;;;;;200.87;57.47;;;3.00;94.60;;;;;;5033270;28;20292;-66
2023/02/03 06:54:55;;;;;;;200.80;58.47;;;3.00;94.60;;;;;;5039612;28;20256;-67
2023/02/03 06:57:22;;;;;;;192.37;61.43;;;3.00;94.70;;;;;;5036146;28;20210;-66
2023/02/03 06:59:49;;;;;;;344.50;61.73;;;3.10;94.80;;;;;;5033478;28;20206;-66
2023/02/03 07:02:16;;;;;;;172.47;57.40;;;3.10;94.90;;;;;;5031823;28;20229;-66
2023/02/03 07:04:44;;;;;;;170.67;53.27;;;3.20;95.00;;;;;;5037862;28;20246;-66
2023/02/03 07:07:11;;;;;;;306.73;62.20;;;3.20;95.00;;;;;;5031348;28;20432;-66
2023/02/03 07:09:39;;;;;;;144.00;55.83;;;3.20;95.10;;;;;;5040310;28;20230;-66
2023/02/03 07:12:07;;;;;;;202.57;59.87;;;3.30;95.10;;;;;;5030073;28;20201;-68
2023/02/03 07:14:35;;;;;;;688.27;77.93;;;3.30;95.20;;;;;;5037496;28;20213;-66
2023/02/03 07:17:02;;;;;;;517.20;71.73;;;3.40;95.40;;;;;;5033084;28;20646;-68
2023/02/03 07:19:29;;;;;;;517.73;69.53;;;3.50;95.90;;;;;;5038759;28;20210;-67
2023/02/03 07:21:56;;;;;;;507.40;69.73;;;3.50;95.90;;;;;;5036277;28;20303;-66
2023/02/03 07:24:23;;;;;;;261.37;61.60;;;3.40;96.00;;;;;;5031167;28;20208;-66
2023/02/03 07:26:51;;;;;;;217.70;61.37;;;3.40;96.10;;;;;;5033988;28;20304;-66
2023/02/03 07:29:18;;;;;;;325.07;67.00;;;3.40;96.40;;;;;;5031318;28;20208;-67
2023/02/03 07:31:45;;;;;;;659.93;78.83;;;3.50;96.50;;;;;;5034795;28;20218;-67
2023/02/03 07:34:12;;;;;;;607.30;78.70;;;3.50;96.60;;;;;;5039227;28;20208;-67
2023/02/03 07:36:40;;;;;;;723.47;85.50;;;3.50;96.80;;;;;;5035387;28;20202;-66
2023/02/03 07:39:07;;;;;;;567.57;74.50;;;3.60;96.80;;;;;;5041219;28;20193;-67
2023/02/03 07:41:34;;;;;;;549.20;77.87;;;3.60;97.00;;;;;;5038801;28;20202;-66
2023/02/03 07:44:01;;;;;;;856.73;88.93;;;3.60;97.30;;;;;;5037840;28;20201;-67
2023/02/03 07:46:28;;;;;;;264.37;65.87;;;3.70;97.60;;;;;;5038447;28;20716;-67
2023/02/03 07:48:55;;;;;;;378.80;70.43;;;3.70;97.70;;;;;;5037411;28;20257;-67
2023/02/03 07:51:22;;;;;;;714.70;88.27;;;3.70;97.90;;;;;;5034323;28;20205;-67
2023/02/03 07:53:49;;;;;;;888.77;105.53;;;3.80;98.00;;;;;;5029481;28;20270;-67
2023/02/03 07:56:16;;;;;;;558.43;86.60;;;3.90;98.10;;;;;;5035573;28;20198;-67
2023/02/03 07:58:43;;;;;;;756.10;92.17;;;3.90;98.30;;;;;;5032005;28;20202;-67
2023/02/03 08:01:15;;;;;;;482.87;79.17;;;3.90;98.50;;;;;;5032916;28;20284;-67
2023/02/03 08:03:42;;;;;;;333.47;70.77;;;3.90;98.60;;;;;;5036972;28;20253;-67
2023/02/03 08:06:09;;;;;;;302.10;76.57;;;3.90;98.60;;;;;;5038434;28;20206;-66
2023/02/03 08:08:36;;;;;;;1038.73;99.77;;;4.00;98.70;;;;;;5037189;28;20255;-67
2023/02/03 08:11:03;;;;;;;589.10;85.20;;;4.10;98.70;;;;;;5034604;28;20208;-66
2023/02/03 08:13:30;;;;;;;519.57;82.13;;;4.10;98.60;;;;;;5037178;28;20208;-66
2023/02/03 08:15:57;;;;;;;454.37;76.23;;;4.20;98.60;;;;;;5034146;28;20257;-66
2023/02/03 08:18:24;;;;;;;260.80;70.60;;;4.30;98.60;;;;;;5034183;28;20214;-66
2023/02/03 08:20:51;;;;;;;699.57;85.67;;;4.40;98.60;;;;;;5035552;28;20253;-66
2023/02/03 08:23:18;;;;;;;497.77;76.83;;;4.50;98.60;;;;;;5029639;28;20265;-67
2023/02/03 08:25:52;;;;;;;487.13;79.23;;;4.60;98.50;;;;;;5034277;28;20206;-67
2023/02/03 08:28:19;;;;;;;467.07;79.40;;;4.70;98.50;;;;;;5036741;28;20671;-66
2023/02/03 08:30:46;;;;;;;518.60;80.80;;;4.70;98.70;;;;;;5037849;28;20202;-66
2023/02/03 08:33:13;;;;;;;377.00;74.57;;;4.70;98.70;;;;;;5037468;28;20198;-67
2023/02/03 08:35:45;;;;;;;272.87;75.00;;;4.70;98.70;;;;;;5036694;28;20209;-66
2023/02/03 08:38:12;;;;;;;260.43;73.40;;;4.80;98.70;;;;;;5038978;28;20248;-66
2023/02/03 08:40:39;;;;;;;328.87;78.00;;;4.80;98.70;;;;;;5031925;28;20214;-67
2023/02/03 08:43:06;;;;;;;296.67;82.33;;;4.90;98.70;;;;;;5035831;28;20225;-66
2023/02/03 08:45:33;;;;;;;272.07;83.97;;;5.00;98.70;;;;;;5035630;28;20225;-66
2023/02/03 08:48:00;;;;;;;319.90;79.83;;;5.10;98.70;;;;;;5033914;28;20229;-67
2023/02/03 08:50:27;;;;;;;259.30;76.00;;;5.20;98.70;;;;;;5037411;28;20526;-66
2023/02/03 08:52:55;;;;;;;244.27;84.20;;;5.20;98.60;;;;;;5036798;28;20212;-66
2023/02/03 08:55:23;;;;;;;255.77;80.33;;;5.30;98.50;;;;;;5032251;28;20207;-67
2023/02/03 08:57:50;;;;;;;351.73;82.90;;;5.40;98.40;;;;;;5038006;28;20205;-67
2023/02/03 09:00:17;;;;;;;254.30;81.57;;;5.50;98.30;;;;;;5036082;28;20521;-67
2023/02/03 09:02:44;;;;;;;290.43;84.10;;;5.50;98.30;;;;;;5040436;28;20210;-67
2023/02/03 09:05:11;;;;;;;235.23;78.70;;;5.60;98.20;;;;;;5039939;28;20250;-67
2023/02/03 09:07:39;;;;;;;229.77;76.50;;;5.60;98.10;;;;;;5035854;28;20547;-67
2023/02/03 09:10:06;;;;;;;259.67;74.83;;;5.70;98.00;;;;;;5034896;28;20197;-66
2023/02/03 09:12:33;;;;;;;234.33;72.77;;;5.70;98.00;;;;;;5036726;28;20261;-66
2023/02/03 09:15:00;;;;;;;253.70;72.23;;;5.70;97.80;;;;;;5040106;28;20198;-66
2023/02/03 09:17:27;;;;;;;212.77;67.03;;;5.70;97.70;;;;;;5033054;28;20214;-66
2023/02/03 09:19:54;;;;;;;207.67;70.50;;;5.70;97.60;;;;;;5034911;28;20636;-67
2023/02/03 09:22:21;;;;;;;187.63;69.47;;;5.70;97.50;;;;;;5037889;28;20660;-67
2023/02/03 09:24:50;;;;;;;209.57;71.87;;;5.70;97.50;;;;;;5039717;28;20293;-66
2023/02/03 09:27:17;;;;;;;210.27;68.43;;;5.70;97.40;;;;;;5035900;28;20262;-67
2023/02/03 09:29:44;;;;;;;210.63;72.17;;;5.70;97.40;;;;;;5041416;28;20214;-66
2023/02/03 09:32:11;;;;;;;182.30;69.30;;;5.70;97.30;;;;;;5039114;28;20188;-67
2023/02/03 09:34:41;;;;;;;212.03;73.63;;;5.70;97.30;;;;;;5038134;28;20198;-66
2023/02/03 09:37:08;;;;;;;209.30;68.30;;;5.70;97.20;;;;;;5034424;28;20196;-66
2023/02/03 09:39:36;;;;;;;203.90;77.43;;;5.80;97.20;;;;;;5034341;28;20282;-67
2023/02/03 09:42:16;;;;;;;209.47;74.33;;;5.80;97.20;;;;;;5029843;28;20588;-66
2023/02/03 09:45:28;;;;;;;210.87;76.67;;;5.80;97.10;;;;;;5037123;28;20216;-67
2023/02/03 09:48:13;;;;;;;212.10;75.43;;;5.90;97.10;;;;;;5029388;28;20254;-66
2023/02/03 09:50:43;;;;;;;203.67;76.27;;;5.90;97.10;;;;;;5038437;28;20214;-66
2023/02/03 09:53:18;;;;;;;215.70;73.50;;;6.00;97.00;;;;;;5041060;28;20194;-66
2023/02/03 09:55:47;;;;;;;200.53;74.67;;;6.00;97.00;;;;;;5040827;28;20190;-66
2023/02/03 09:58:15;;;;;;;210.03;73.17;;;6.00;96.90;;;;;;5037763;28;20229;-66
2023/02/03 10:00:51;;;;;;;202.00;72.13;;;6.10;97.00;;;;;;5034793;28;20203;-66
2023/02/03 10:04:01;;;;;;;228.87;72.80;;;6.20;97.00;;;;;;5032455;28;20584;-66
2023/02/03 10:06:36;;;;;;;198.87;69.17;;;6.20;96.90;;;;;;5031939;28;20257;-66
2023/02/03 10:09:41;;;;;;;202.80;73.10;;;6.30;96.80;;;;;;5038325;28;20238;-66
2023/02/03 10:12:46;;;;;;;198.63;66.83;;;6.30;96.40;;;;;;5023140;28;20265;-66
2023/02/03 10:15:16;;;;;;;187.70;69.80;;;6.30;96.40;;;;;;5038236;28;20659;-66
2023/02/03 10:17:51;;;;;;;182.90;70.50;;;6.30;96.40;;;;;;5032721;28;20211;-66
2023/02/03 10:20:34;;;;;;;184.60;72.13;;;6.30;96.30;;;;;;5042732;28;20534;-67
2023/02/03 10:23:13;;;;;;;186.63;70.83;;;6.30;96.20;;;;;;5039451;28;20214;-66
2023/02/03 10:25:54;;;;;;;173.83;68.43;;;6.30;96.20;;;;;;5034965;28;20297;-66
2023/02/03 10:28:27;;;;;;;180.77;72.93;;;6.40;96.30;;;;;;5036339;28;20219;-66
2023/02/03 10:31:00;;;;;;;173.47;70.63;;;6.40;96.40;;;;;;5036573;28;20196;-67
2023/02/03 10:33:30;;;;;;;157.33;66.60;;;6.40;96.40;;;;;;5032820;28;20274;-66
2023/02/03 10:36:17;;;;;;;178.07;69.53;;;6.40;96.40;;;;;;5031992;28;20199;-66
2023/02/03 10:39:13;;;;;;;173.93;69.57;;;6.50;96.40;;;;;;5039781;28;20203;-66
2023/02/03 10:41:40;;;;;;;181.23;68.97;;;6.50;96.40;;;;;;5028615;28;20219;-66
2023/02/03 10:44:11;;;;;;;188.63;70.77;;;6.60;96.40;;;;;;5038633;28;20256;-67
2023/02/03 10:46:41;;;;;;;174.77;73.63;;;6.70;96.40;;;;;;5039540;28;20199;-66
2023/02/03 10:49:11;;;;;;;193.23;74.87;;;6.70;96.40;;;;;;5036574;28;20565;-67
2023/02/03 10:51:47;;;;;;;180.30;70.97;;;6.80;96.40;;;;;;5040178;28;20200;-66
2023/02/03 10:54:33;;;;;;;189.23;75.30;;;6.90;96.40;;;;;;5037396;28;20230;-66
2023/02/03 10:57:12;;;;;;;189.53;77.43;;;7.00;96.50;;;;;;5047596;28;20206;-66
2023/02/03 10:59:47;;;;;;;180.20;74.60;;;7.20;96.50;;;;;;5032562;28;20199;-66
2023/02/03 11:02:23;;;;;;;190.03;73.17;;;7.30;96.40;;;;;;5039752;28;20191;-66
2023/02/03 11:05:16;;;;;;;172.20;69.97;;;7.50;96.40;;;;;;5030874;28;20238;-66
2023/02/03 11:07:43;;;;;;;205.80;74.80;;;7.60;96.30;;;;;;5038200;28;20203;-66
2023/02/03 11:10:37;;;;;;;177.37;73.27;;;7.70;96.10;;;;;;5035032;28;20223;-66
2023/02/03 11:13:22;;;;;;;170.17;73.60;;;7.80;96.10;;;;;;5038445;28;20201;-66
2023/02/03 11:16:25;;;;;;;190.57;76.40;;;7.90;96.10;;;;;;5042299;28;20573;-66
2023/02/03 11:18:56;;;;;;;183.47;74.23;;;8.10;96.10;;;;;;5037955;28;20214;-66
2023/02/03 11:21:39;;;;;;;184.53;79.17;;;8.30;96.10;;;;;;5032276;28;20228;-66
2023/02/03 11:24:24;;;;;;;176.67;78.93;;;8.50;95.90;;;;;;5035160;28;20263;-66
2023/02/03 11:26:51;;;;;;;186.77;79.67;;;8.60;95.80;;;;;;5035785;28;20195;-66
2023/02/03 11:29:29;;;;;;;203.03;84.93;;;8.80;95.60;;;;;;5036246;28;20219;-66
2023/02/03 11:32:00;;;;;;;197.40;87.10;;;8.90;95.40;;;;;;5034573;28;20218;-67
2023/02/03 11:34:36;;;;;;;186.10;85.63;;;9.00;95.30;;;;;;5036292;28;20196;-67
2023/02/03 11:37:25;;;;;;;190.33;88.07;;;9.00;95.10;;;;;;5033751;28;20208;-66
2023/02/03 11:40:14;;;;;;;197.97;88.50;;;9.10;94.90;;;;;;5037303;28;20640;-66
2023/02/03 11:43:02;;;;;;;192.93;86.30;;;9.10;94.70;;;;;;5036660;28;20637;-66
2023/02/03 11:45:34;;;;;;;183.20;84.33;;;9.10;94.60;;;;;;5038356;28;20236;-66
2023/02/03 11:48:20;;;;;;;183.67;83.80;;;9.10;94.60;;;;;;5034303;28;20221;-66
2023/02/03 11:50:56;;;;;;;185.73;86.10;;;9.10;94.40;;;;;;5033649;28;20208;-66
2023/02/03 11:53:55;;;;;;;178.27;85.77;;;9.10;94.20;;;;;;5036925;28;20200;-67
2023/02/03 11:56:29;;;;;;;181.23;84.17;;;9.00;94.10;;;;;;5034328;28;20281;-66
2023/02/03 11:59:24;;;;;;;184.10;82.70;;;8.90;94.10;;;;;;5033022;28;20214;-66
2023/02/03 12:01:56;;;;;;;178.60;83.43;;;8.90;94.30;;;;;;5032545;28;20207;-66
2023/02/03 12:04:42;;;;;;;186.70;86.03;;;8.90;94.40;;;;;;5032916;28;20272;-67
2023/02/03 12:07:38;;;;;;;191.37;87.20;;;9.10;94.60;;;;;;5042445;28;20295;-66
2023/02/03 12:10:24;;;;;;;182.83;83.90;;;9.30;94.60;;;;;;5033794;28;20204;-66
2023/02/03 12:12:58;;;;;;;197.33;88.27;;;9.50;94.50;;;;;;5041155;28;20214;-66
2023/02/03 12:16:09;;;;;;;180.10;85.17;;;9.70;94.20;;;;;;5033755;28;20199;-66
2023/02/03 12:18:55;;;;;;;179.73;85.53;;;9.90;93.80;;;;;;5032231;28;20212;-66
2023/02/03 12:21:40;;;;;;;178.87;85.90;;;10.10;93.50;;;;;;5029713;28;20224;-67
2023/02/03 12:24:23;;;;;;;164.27;85.27;;;10.30;93.20;;;;;;5034822;28;20202;-67
2023/02/03 12:27:17;;;;;;;166.93;82.63;;;10.40;92.90;;;;;;5040279;28;20195;-66
2023/02/03 12:29:56;;;;;;;169.30;79.90;;;10.50;92.50;;;;;;5029696;28;20257;-67
2023/02/03 12:32:35;;;;;;;178.80;83.57;;;10.60;91.30;;;;;;5038107;28;20200;-66
2023/02/03 12:35:12;;;;;;;183.50;86.43;;;10.60;91.30;;;;;;5038748;28;20531;-66
2023/02/03 12:37:49;;;;;;;168.47;84.43;;;10.70;91.20;;;;;;5037579;28;20267;-67
2023/02/03 12:40:35;;;;;;;169.00;83.67;;;10.70;91.10;;;;;;5041152;28;20593;-66
2023/02/03 12:43:39;;;;;;;170.50;82.80;;;10.80;91.10;;;;;;5039687;28;20194;-66
2023/02/03 12:46:09;;;;;;;169.87;82.17;;;10.90;91.00;;;;;;5019393;28;20326;-66
2023/02/03 12:49:15;;;;;;;168.90;82.30;;;11.00;90.80;;;;;;5034100;28;20701;-66
2023/02/03 12:51:54;;;;;;;163.70;82.57;;;11.10;90.50;;;;;;5032138;28;20204;-66
2023/02/03 12:54:24;;;;;;;173.07;82.97;;;11.20;90.30;;;;;;5032630;28;20239;-66
2023/02/03 12:56:54;;;;;;;161.73;81.03;;;11.20;89.90;;;;;;5037224;28;20264;-66
2023/02/03 12:59:24;;;;;;;167.10;83.10;;;11.30;89.60;;;;;;5039285;28;20207;-66
2023/02/03 13:01:57;;;;;;;151.37;82.17;;;11.30;89.40;;;;;;5043812;28;20198;-67
2023/02/03 13:04:46;;;;;;;159.10;84.07;;;11.30;89.10;;;;;;5037775;28;20563;-67